Time;durP1;ratioP1;P1;durP2;ratioP2;P2;SDS_P1;SDS_P2;PMS_P1;PMS_P2;Temp;Humidity;BMP_temperature;BMP_pressure;BME280_temperature;BME280_humidity;BME280_pressure;Samples;Min_cycle;Max_cycle;Signal;HPM_P1;HPM_P2
2022/09/21 00:01:57;;;;;;;2.37;1.43;;;;;;;6.52;100.00;101858.47;5096711;28;20042;-85
2022/09/21 00:04:23;;;;;;;3.53;2.15;;;;;;;6.55;100.00;101866.22;5095977;28;20028;-84
2022/09/21 00:06:48;;;;;;;4.43;1.80;;;;;;;6.52;100.00;101874.41;5096757;28;20034;-85
2022/09/21 00:09:14;;;;;;;3.80;2.00;;;;;;;6.42;100.00;101873.34;5098418;28;20063;-86
2022/09/21 00:11:39;;;;;;;2.50;1.33;;;;;;;6.33;100.00;101862.41;5092381;28;20062;-85
2022/09/21 00:14:09;;;;;;;2.50;1.60;;;;;;;6.28;100.00;101858.41;5081653;28;20066;-86
2022/09/21 00:16:35;;;;;;;6.50;1.70;;;;;;;6.25;100.00;101848.88;5072276;28;20131;-85
2022/09/21 00:19:01;;;;;;;5.15;2.63;;;;;;;6.32;100.00;101868.69;5081351;28;20106;-86
2022/09/21 00:21:27;;;;;;;3.25;2.03;;;;;;;6.25;100.00;101861.25;5080693;28;20247;-86
2022/09/21 00:23:53;;;;;;;3.42;1.85;;;;;;;6.21;100.00;101865.09;5076350;28;20024;-85
2022/09/21 00:26:23;;;;;;;2.28;1.80;;;;;;;6.26;100.00;101870.94;5083231;28;20042;-86
2022/09/21 00:28:56;;;;;;;4.22;1.45;;;;;;;6.21;100.00;101863.28;5082236;28;20046;-85
2022/09/21 00:31:22;;;;;;;2.33;1.77;;;;;;;6.24;100.00;101867.53;5092453;28;20537;-85
2022/09/21 00:33:50;;;;;;;5.28;2.05;;;;;;;6.17;100.00;101866.25;5093121;28;20058;-86
2022/09/21 00:36:17;;;;;;;4.30;2.15;;;;;;;6.14;100.00;101872.63;5089693;28;20048;-86
2022/09/21 00:38:44;;;;;;;5.05;2.33;;;;;;;6.17;100.00;101875.06;5077261;28;20049;-85
2022/09/21 00:41:11;;;;;;;3.20;2.28;;;;;;;6.18;100.00;101868.81;5080643;28;20040;-86
2022/09/21 00:43:38;;;;;;;;;;;;;;;6.11;100.00;101878.13;5093524;28;20228;-86
2022/09/21 00:46:14;;;;;;;9.27;2.20;;;;;;;6.05;100.00;101873.25;5089544;28;19927;-86
2022/09/21 00:48:40;;;;;;;4.35;2.72;;;;;;;6.06;100.00;101880.25;5093021;28;20063;-86
2022/09/21 00:51:07;;;;;;;3.65;1.98;;;;;;;6.05;100.00;101878.56;5082587;28;20023;-86
2022/09/21 00:53:34;;;;;;;3.70;2.20;;;;;;;6.12;100.00;101877.19;5096918;28;20040;-85
2022/09/21 00:56:02;;;;;;;5.78;2.50;;;;;;;6.09;100.00;101875.59;5094234;28;20020;-86
2022/09/21 00:58:35;;;;;;;4.75;2.47;;;;;;;6.01;100.00;101874.41;5080176;28;20034;-85
2022/09/21 01:01:00;;;;;;;7.30;3.58;;;;;;;6.03;100.00;101877.81;5085847;28;20028;-86
2022/09/21 01:03:28;;;;;;;3.93;2.80;;;;;;;5.96;100.00;101868.59;5071686;28;20039;-86
2022/09/21 01:05:54;;;;;;;4.25;2.20;;;;;;;5.91;100.00;101872.34;5064917;28;20039;-86
2022/09/21 01:08:21;;;;;;;3.95;2.50;;;;;;;5.92;100.00;101873.19;5079232;28;20016;-86
2022/09/21 01:10:52;;;;;;;5.50;2.40;;;;;;;5.98;100.00;101879.94;5073528;28;20444;-86
2022/09/21 01:14:00;;;;;;;4.45;2.63;;;;;;;6.04;100.00;101890.97;5080848;28;20031;-86
2022/09/21 01:16:38;;;;;;;5.53;2.35;;;;;;;5.96;100.00;101889.78;4987306;28;20494;-85
2022/09/21 01:19:28;;;;;;;4.25;2.95;;;;;;;5.80;100.00;101877.53;4981357;28;20033;-85
2022/09/21 01:22:01;;;;;;;2.78;1.73;;;;;;;5.74;100.00;101880.63;4969506;28;20034;-86
2022/09/21 01:24:39;;;;;;;7.35;2.67;;;;;;;5.83;100.00;101885.31;4985362;28;20030;-86
2022/09/21 01:27:16;;;;;;;3.22;2.53;;;;;;;5.78;100.00;101884.75;4964837;28;20092;-86
2022/09/21 01:29:57;;;;;;;3.50;2.50;;;;;;;5.72;100.00;101878.06;4972229;28;20107;-86
2022/09/21 01:32:28;;;;;;;4.05;2.80;;;;;;;5.76;100.00;101881.38;5001210;28;20042;-85
2022/09/21 01:35:00;;;;;;;5.68;2.72;;;;;;;5.74;100.00;101882.44;4984770;28;20124;-85
2022/09/21 01:37:37;;;;;;;4.53;2.30;;;;;;;5.68;100.00;101875.72;5001200;28;20037;-85
2022/09/21 01:40:10;;;;;;;4.78;3.40;;;;;;;5.66;100.00;101869.66;4983885;28;20046;-86
2022/09/21 01:42:39;;;;;;;4.28;2.55;;;;;;;5.68;100.00;101873.06;4982879;28;20133;-85
2022/09/21 01:45:07;;;;;;;3.92;2.67;;;;;;;5.70;100.00;101871.16;4987283;28;20478;-85
2022/09/21 01:47:36;;;;;;;4.20;2.28;;;;;;;5.72;100.00;101869.28;4988154;28;20148;-85
2022/09/21 01:50:06;;;;;;;3.17;2.53;;;;;;;5.64;100.00;101867.16;4986070;28;20037;-86
2022/09/21 01:52:51;;;;;;;5.85;2.47;;;;;;;5.61;100.00;101859.38;5002895;28;20123;-86
2022/09/21 01:55:27;;;;;;;5.20;3.20;;;;;;;5.61;100.00;101853.25;5093591;28;20541;-85
2022/09/21 01:58:03;;;;;;;5.53;3.17;;;;;;;5.56;100.00;101858.84;5078986;28;20032;-86
2022/09/21 02:00:31;;;;;;;;;;;;;;;5.54;100.00;101849.31;5063962;28;20032;-85
2022/09/21 02:03:13;;;;;;;6.78;2.38;;;;;;;5.50;100.00;101846.88;5089583;28;19912;-86
2022/09/21 02:05:40;;;;;;;5.80;2.15;;;;;;;5.52;100.00;101848.56;5095186;28;20062;-86
2022/09/21 02:08:07;;;;;;;4.85;2.53;;;;;;;5.48;100.00;101843.47;5077628;28;20019;-86
2022/09/21 02:10:38;;;;;;;4.47;2.78;;;;;;;5.55;100.00;101849.22;5093733;28;20047;-85
2022/09/21 02:13:05;;;;;;;4.15;2.78;;;;;;;5.56;100.00;101856.19;5089331;28;20420;-86
2022/09/21 02:15:57;;;;;;;4.47;3.22;;;;;;;5.49;100.00;101855.75;5077420;28;20024;-86
2022/09/21 02:18:40;;;;;;;6.82;3.60;;;;;;;5.50;100.00;101862.78;5066933;28;20044;-85
2022/09/21 02:21:23;;;;;;;5.40;2.50;;;;;;;5.54;100.00;101860.75;5094421;28;20040;-86
2022/09/21 02:24:27;;;;;;;5.90;3.22;;;;;;;5.49;100.00;101853.09;5087994;28;20499;-86
2022/09/21 02:26:57;;;;;;;3.30;2.40;;;;;;;5.43;100.00;101850.88;5049897;28;20106;-86
2022/09/21 02:29:31;;;;;;;5.03;2.58;;;;;;;5.44;100.00;101851.72;5083752;28;20040;-86
2022/09/21 02:32:24;;;;;;;3.78;2.55;;;;;;;5.40;100.00;101842.28;5099706;28;20027;-86
2022/09/21 02:34:56;;;;;;;6.22;2.58;;;;;;;5.39;100.00;101848.53;5104807;27;20047;-86
2022/09/21 02:37:39;;;;;;;5.32;3.55;;;;;;;5.41;100.00;101847.47;5077270;28;20035;-86
2022/09/21 02:40:32;;;;;;;9.30;4.75;;;;;;;5.50;100.00;101849.53;5092758;28;20066;-86
2022/09/21 02:43:04;;;;;;;10.93;4.35;;;;;;;5.61;100.00;101863.84;5083899;28;20504;-86
2022/09/21 02:45:36;;;;;;;8.20;3.45;;;;;;;5.46;100.00;101869.22;5082262;28;20105;-86
2022/09/21 02:48:17;;;;;;;4.57;3.47;;;;;;;5.37;100.00;101866.31;5075705;28;20099;-86
2022/09/21 02:51:09;;;;;;;6.72;3.80;;;;;;;5.35;100.00;101876.16;5067206;28;20411;-85
2022/09/21 02:53:38;;;;;;;4.85;3.38;;;;;;;5.33;100.00;101870.97;5097163;28;20066;-86
2022/09/21 02:56:06;;;;;;;7.35;3.58;;;;;;;5.34;100.00;101871.81;5069618;28;20028;-85
2022/09/21 02:58:38;;;;;;;4.20;3.15;;;;;;;5.37;100.00;101877.75;5078904;28;20025;-86
2022/09/21 03:01:06;;;;;;;10.57;5.50;;;;;;;5.52;100.00;101890.94;5086001;28;20042;-86
2022/09/21 03:03:32;;;;;;;6.55;3.63;;;;;;;5.41;100.00;101894.31;5081561;28;20012;-86
2022/09/21 03:05:57;;;;;;;7.75;3.53;;;;;;;5.29;100.00;101880.06;5085746;28;20047;-85
2022/09/21 03:08:23;;;;;;;5.80;3.90;;;;;;;5.28;100.00;101884.50;5092516;28;20027;-86
2022/09/21 03:10:49;;;;;;;6.53;2.70;;;;;;;5.28;100.00;101894.25;5066356;28;20028;-86
2022/09/21 03:13:15;;;;;;;5.15;3.25;;;;;;;5.20;100.00;101886.81;5079679;28;20123;-86
2022/09/21 03:15:41;;;;;;;12.15;3.70;;;;;;;5.21;100.00;101890.31;5097916;28;20031;-86
2022/09/21 03:18:08;;;;;;;6.05;3.33;;;;;;;5.21;100.00;101888.50;5088964;28;20019;-86
2022/09/21 03:20:39;;;;;;;11.73;3.40;;;;;;;5.21;100.00;101895.59;5078488;28;20405;-86
2022/09/21 03:23:05;;;;;;;4.75;2.88;;;;;;;5.16;100.00;101900.34;5078989;28;20035;-86
2022/09/21 03:25:32;;;;;;;5.97;3.35;;;;;;;5.25;100.00;101899.75;5075567;28;20016;-86
2022/09/21 03:27:57;;;;;;;8.13;3.80;;;;;;;5.27;100.00;101909.31;5090840;28;20117;-85
2022/09/21 03:30:25;;;;;;;4.88;3.47;;;;;;;5.13;100.00;101904.06;5079668;28;20074;-86
2022/09/21 03:32:52;;;;;;;5.40;3.28;;;;;;;5.02;100.00;101904.72;5081731;28;20035;-85
2022/09/21 03:35:18;;;;;;;5.65;3.38;;;;;;;4.96;100.00;101899.81;5089100;28;20023;-86
2022/09/21 03:37:45;;;;;;;5.05;3.25;;;;;;;4.99;100.00;101904.94;5084632;28;20028;-86
2022/09/21 03:40:11;;;;;;;;;;;;;;;4.97;100.00;101890.09;5094883;28;20019;-86
2022/09/21 03:42:38;;;;;;;5.18;3.40;;;;;;;4.96;100.00;101898.97;5079326;28;20041;-86
2022/09/21 03:45:04;;;;;;;8.57;4.18;;;;;;;5.10;100.00;101898.09;5081992;28;20019;-85
2022/09/21 03:47:29;;;;;;;11.85;4.65;;;;;;;5.20;100.00;101910.66;5082459;28;20389;-86
2022/09/21 03:49:55;;;;;;;6.50;5.00;;;;;;;5.11;100.00;101907.75;5082282;28;20022;-86
2022/09/21 03:52:20;;;;;;;8.53;3.80;;;;;;;5.07;100.00;101923.81;5094018;28;20037;-86
2022/09/21 03:54:45;;;;;;;4.43;3.13;;;;;;;5.03;100.00;101919.69;5065672;28;20051;-86
2022/09/21 03:57:11;;;;;;;5.87;4.10;;;;;;;5.04;100.00;101915.22;5076722;28;20422;-86
2022/09/21 03:59:36;;;;;;;7.17;3.93;;;;;;;5.06;100.00;101924.75;5079208;28;20403;-86
2022/09/21 04:02:01;;;;;;;10.27;4.20;;;;;;;4.98;100.00;101929.69;5082355;28;20032;-85
2022/09/21 04:04:27;;;;;;;10.50;5.63;;;;;;;4.89;100.00;101924.97;5078709;28;20380;-86
2022/09/21 04:06:53;;;;;;;11.37;6.50;;;;;;;4.89;100.00;101929.41;5076752;28;20032;-86
2022/09/21 04:09:18;;;;;;;15.10;6.82;;;;;;;4.95;100.00;101934.34;5086957;28;20468;-86
2022/09/21 04:11:44;;;;;;;10.93;6.37;;;;;;;5.03;100.00;101948.78;5091755;28;20043;-86
2022/09/21 04:14:13;;;;;;;11.50;5.45;;;;;;;4.98;100.00;101945.56;5089198;28;20225;-86
2022/09/21 04:16:38;;;;;;;12.07;5.63;;;;;;;4.88;100.00;101939.16;5091880;28;20028;-86
2022/09/21 04:19:04;;;;;;;10.27;5.77;;;;;;;4.79;100.00;101940.56;5082318;28;20015;-86
2022/09/21 04:21:29;;;;;;;9.40;4.57;;;;;;;4.82;100.00;101935.13;5096071;28;20055;-86
2022/09/21 04:23:55;;;;;;;10.53;6.07;;;;;;;4.79;100.00;101934.44;5081110;28;20019;-86
2022/09/21 04:26:26;;;;;;;15.88;6.65;;;;;;;4.75;100.00;101935.56;5091829;28;20035;-86
2022/09/21 04:28:52;;;;;;;37.13;18.80;;;;;;;4.73;100.00;101934.81;5090719;28;20867;-86
2022/09/21 04:31:18;;;;;;;17.55;8.63;;;;;;;4.74;100.00;101933.88;5082130;28;20050;-86
2022/09/21 04:33:47;;;;;;;13.73;7.40;;;;;;;4.72;100.00;101928.69;5093260;28;20032;-86
2022/09/21 04:36:12;;;;;;;11.50;6.70;;;;;;;4.71;100.00;101931.44;5067377;28;20047;-86
2022/09/21 04:38:39;;;;;;;10.87;5.20;;;;;;;4.72;100.00;101933.13;5091083;28;20480;-86
2022/09/21 04:41:05;;;;;;;15.50;6.97;;;;;;;4.84;100.00;101929.72;5097101;28;20022;-86
2022/09/21 04:43:31;;;;;;;40.28;20.02;;;;;;;4.86;100.00;101946.34;5093397;28;20031;-86
2022/09/21 04:45:56;;;;;;;29.67;14.23;;;;;;;4.75;100.00;101935.56;5090894;28;20024;-86
2022/09/21 04:48:21;;;;;;;18.53;9.03;;;;;;;4.74;100.00;101931.25;5088366;28;20042;-84
2022/09/21 04:50:48;;;;;;;13.82;7.18;;;;;;;4.75;100.00;101932.94;5086588;28;20072;-86
2022/09/21 04:53:14;;;;;;;13.43;7.00;;;;;;;4.77;100.00;101931.03;5081577;28;20032;-86
2022/09/21 04:55:39;;;;;;;13.67;7.43;;;;;;;4.82;100.00;101947.47;5076042;28;20081;-86
2022/09/21 04:58:04;;;;;;;15.20;8.13;;;;;;;4.76;100.00;101940.78;5081273;28;20541;-85
2022/09/21 05:00:30;;;;;;;201.23;14.40;;;;;;;4.78;100.00;101930.09;5092417;28;20031;-86
2022/09/21 05:02:56;;;;;;;14.57;7.50;;;;;;;4.91;100.00;101944.25;5096743;28;20040;-86
2022/09/21 05:05:21;;;;;;;11.10;6.30;;;;;;;4.78;100.00;101940.69;5077904;28;20030;-86
2022/09/21 05:07:46;;;;;;;13.27;6.60;;;;;;;4.75;100.00;101940.88;5081365;28;20039;-86
2022/09/21 05:10:12;;;;;;;13.10;6.90;;;;;;;4.76;100.00;101945.22;5073922;28;20072;-87
2022/09/21 05:12:37;;;;;;;16.90;6.90;;;;;;;4.76;100.00;101940.78;5094617;28;20028;-86
2022/09/21 05:15:03;;;;;;;13.10;6.57;;;;;;;4.76;100.00;101940.78;5079929;28;20047;-86
2022/09/21 05:17:28;;;;;;;12.15;6.55;;;;;;;4.75;100.00;101943.50;5090143;28;20028;-86
2022/09/21 05:19:53;;;;;;;11.87;6.33;;;;;;;4.72;100.00;101933.97;5074320;28;20035;-86
2022/09/21 05:22:19;;;;;;;54.40;9.77;;;;;;;4.74;100.00;101929.44;5076623;28;20397;-86
2022/09/21 05:24:44;;;;;;;11.48;6.78;;;;;;;4.91;100.00;101938.97;5089646;28;20482;-85
2022/09/21 05:27:10;;;;;;;114.93;11.30;;;;;;;4.96;100.00;101942.16;5085466;28;20506;-86
2022/09/21 05:29:36;;;;;;;17.30;10.30;;;;;;;5.03;100.00;101943.50;5087271;28;20020;-85
2022/09/21 05:32:26;;;;;;;18.33;9.40;;;;;;;4.97;100.00;101953.63;5092436;28;20039;-84
2022/09/21 05:35:05;;;;;;;21.30;11.75;;;;;;;4.97;100.00;101957.09;5091606;28;20032;-86
2022/09/21 05:37:42;;;;;;;22.25;7.72;;;;;;;5.13;100.00;101959.66;5064386;28;20457;-86
2022/09/21 05:40:10;;;;;;;121.65;11.73;;;;;;;5.31;100.00;101968.19;5076668;28;20047;-86
2022/09/21 05:42:35;;;;;;;265.58;17.08;;;;;;;5.47;100.00;101976.00;5081013;28;20035;-86
2022/09/21 05:45:01;;;;;;;9.32;5.82;;;;;;;5.41;100.00;101979.06;5081675;28;20027;-86
2022/09/21 05:48:05;;;;;;;15.82;7.47;;;;;;;5.30;100.00;101979.75;5070478;22;20054;-74
2022/09/21 05:51:00;;;;;;;263.63;20.17;;;;;;;5.55;100.00;101983.44;5060323;28;20485;-73
2022/09/21 05:53:37;;;;;;;249.43;17.10;;;;;;;5.87;100.00;101994.59;5078466;28;20115;-72
2022/09/21 05:56:15;;;;;;;38.85;8.35;;;;;;;5.98;100.00;102002.72;5075217;28;20032;-73
2022/09/21 05:59:18;;;;;;;225.27;17.42;;;;;;;6.16;100.00;102007.72;5077671;28;20024;-72
2022/09/21 06:02:25;;;;;;;12.50;7.05;;;;;;;7.22;100.00;102040.25;5072871;28;20504;-73
2022/09/21 06:04:55;;;;;;;10.15;6.32;;;;;;;8.50;100.00;102066.31;5073370;28;20516;-72
2022/09/21 06:07:20;;;;;;;11.52;6.50;;;;;;;9.40;100.00;102071.75;5081200;28;20328;-72
2022/09/21 06:09:46;;;;;;;11.13;6.27;;;;;;;9.79;100.00;102034.84;5101262;22;20139;-79
2022/09/21 06:12:11;;;;;;;12.00;6.33;;;;;;;10.65;100.00;102008.97;5042104;28;20047;-81
2022/09/21 06:14:36;;;;;;;9.93;5.75;;;;;;;11.48;100.00;102010.56;5030173;28;20051;-79
2022/09/21 06:17:02;;;;;;;8.40;5.00;;;;;;;11.94;100.00;101993.03;5012660;28;20025;-80
2022/09/21 06:19:27;;;;;;;7.90;4.70;;;;;;;12.16;100.00;101941.03;5014144;28;20512;-81
2022/09/21 06:21:53;;;;;;;6.20;3.80;;;;;;;11.84;100.00;101872.56;5006637;28;20106;-82
2022/09/21 06:24:18;;;;;;;6.40;4.20;;;;;;;12.01;100.00;101838.06;5011156;28;20383;-82
2022/09/21 06:26:43;;;;;;;4.83;4.33;;;;;;;12.39;100.00;101791.56;5025542;28;20033;-81
2022/09/21 06:29:09;;;;;;;7.37;4.17;;;;;;;12.44;100.00;101772.38;5007100;28;20029;-83
2022/09/21 06:31:35;;;;;;;4.83;3.43;;;;;;;12.95;100.00;101744.09;5027070;28;20048;-82
2022/09/21 06:34:01;;;;;;;3.90;3.50;;;;;;;13.26;100.00;101688.22;5043326;28;20049;-81
2022/09/21 06:36:26;;;;;;;5.22;3.70;;;;;;;13.21;100.00;101615.44;5006148;28;20408;-80
2022/09/21 06:38:51;;;;;;;9.90;3.77;;;;;;;13.64;100.00;101605.63;5024291;28;20020;-79
2022/09/21 06:41:17;;;;;;;6.00;3.97;;;;;;;13.92;100.00;101560.56;5024757;28;20446;-79
2022/09/21 06:43:42;;;;;;;4.80;3.77;;;;;;;14.11;100.00;101542.50;5012286;28;20025;-80
2022/09/21 06:46:07;;;;;;;6.17;3.67;;;;;;;14.44;100.00;101504.88;5021715;28;20036;-82
2022/09/21 06:48:34;;;;;;;4.53;3.17;;;;;;;14.57;100.00;101454.19;5026991;28;20051;-82
2022/09/21 06:51:04;;;;;;;7.00;3.70;;;;;;;14.54;100.00;101428.50;5005955;28;20469;-81
2022/09/21 06:53:32;;;;;;;6.18;4.55;;;;;;;14.42;100.00;101482.72;5018978;28;20375;-81
2022/09/21 06:56:08;;;;;;;8.40;4.90;;;;;;;14.84;100.00;101533.56;5023141;28;20401;-80
2022/09/21 06:58:35;;;;;;;7.57;4.78;;;;;;;15.13;100.00;101516.03;5023809;28;20029;-81
2022/09/21 07:01:08;;;;;;;7.13;4.78;;;;;;;14.87;100.00;101548.56;5009536;28;20029;-82
2022/09/21 07:03:34;;;;;;;7.18;4.95;;;;;;;14.57;100.00;101607.38;4994014;28;20034;-78
2022/09/21 07:05:59;;;;;;;6.37;5.03;;;;;;;14.33;100.00;101600.09;5022381;28;20039;-77
2022/09/21 07:08:25;;;;;;;7.07;4.73;;;;;;;14.28;100.00;101622.09;5008675;28;20462;-78
2022/09/21 07:10:51;;;;;;;7.50;5.05;;;;;;;14.45;100.00;101697.34;5017001;28;20025;-77
2022/09/21 07:13:16;;;;;;;14.38;4.53;;;;;;;14.44;100.00;101709.06;5039922;28;20067;-76
2022/09/21 07:15:43;;;;;;;6.30;4.13;;;;;;;14.68;100.00;101719.06;5021819;28;20029;-78
2022/09/21 07:18:12;;;;;;;6.57;4.53;;;;;;;15.13;100.00;101721.28;5025922;28;20039;-79
2022/09/21 07:20:39;;;;;;;6.00;4.10;;;;;;;15.30;100.00;101657.53;5040929;28;20025;-80
2022/09/21 07:23:14;;;;;;;6.43;3.88;;;;;;;15.56;100.00;101705.72;5025804;28;20029;-80
2022/09/21 07:25:40;;;;;;;6.10;3.17;;;;;;;15.97;100.00;101727.19;5028278;28;20037;-78
2022/09/21 07:28:06;;;;;;;;;;;;;;;16.24;100.00;101642.34;5026558;28;20028;-79
2022/09/21 07:30:31;;;;;;;;;;;;;;;15.99;100.00;101446.91;5027646;28;20379;-77
2022/09/21 07:32:57;;;;;;;4.27;3.67;;;;;;;15.95;100.00;101484.16;5045649;28;19913;-76
2022/09/21 07:35:23;;;;;;;5.75;3.80;;;;;;;16.06;100.00;101519.75;5042854;28;20112;-79
2022/09/21 07:37:48;;;;;;;5.35;3.50;;;;;;;16.36;100.00;101551.16;5028361;28;20041;-79
2022/09/21 07:40:13;;;;;;;3.67;3.00;;;;;;;16.43;100.00;101487.44;5041961;28;20041;-78
2022/09/21 07:42:39;;;;;;;6.57;3.40;;;;;;;16.87;100.00;101424.63;5043408;28;20488;-79
2022/09/21 07:45:05;;;;;;;7.03;3.50;;;;;;;16.69;100.00;101248.91;5024844;28;20462;-79
2022/09/21 07:47:30;;;;;;;6.93;4.05;;;;;;;17.16;100.00;101262.91;5015634;28;20032;-79
2022/09/21 07:49:56;;;;;;;4.05;3.42;;;;;;;17.36;100.00;101303.56;5026457;28;20137;-80
2022/09/21 07:52:21;;;;;;;5.27;3.27;;;;;;;17.04;100.00;101241.00;5028893;28;20026;-80
2022/09/21 07:54:47;;;;;;;5.93;3.70;;;;;;;16.83;100.00;101175.28;5027732;28;20535;-80
2022/09/21 07:59:57;;;;;;;4.53;3.33;;;;;;;17.07;100.00;101221.75;5041541;28;20386;-79
2022/09/21 08:02:23;;;;;;;8.07;3.20;;;;;;;17.42;100.00;101372.97;5013691;28;20033;-77
2022/09/21 08:04:48;;;;;;;3.20;2.80;;;;;;;17.15;100.00;101280.97;5026556;28;20051;-77
2022/09/21 08:07:14;;;;;;;5.13;2.77;;;;;;;17.75;100.00;101211.25;5040720;28;20490;-78
2022/09/21 08:09:40;;;;;;;3.60;2.50;;;;;;;18.17;100.00;101216.69;5041710;28;20028;-80
2022/09/21 08:12:06;;;;;;;;;;;;;;;18.56;100.00;101032.13;5019876;28;20083;-81
2022/09/21 08:14:32;;;;;;;4.93;2.63;;;;;;;17.68;100.00;101107.78;5042468;28;19917;-76
2022/09/21 08:16:57;;;;;;;4.20;2.80;;;;;;;17.67;100.00;101319.41;5023198;28;20063;-77
2022/09/21 08:19:24;;;;;;;4.50;2.30;;;;;;;18.94;100.00;101361.56;5025183;28;20042;-77
2022/09/21 08:21:50;;;;;;;6.43;2.03;;;;;;;19.76;100.00;101189.84;5023409;28;20032;-78
2022/09/21 08:24:15;;;;;;;2.95;1.85;;;;;;;20.28;95.88;101067.03;5025176;28;20033;-81
2022/09/21 08:26:41;;;;;;;4.10;1.50;;;;;;;20.33;87.26;100688.47;5042091;28;20912;-77
2022/09/21 08:29:07;;;;;;;2.97;1.70;;;;;;;20.16;85.68;100676.59;5020455;28;20131;-76
2022/09/21 08:31:32;;;;;;;3.50;2.03;;;;;;;20.59;84.75;100801.22;5025456;28;20029;-78
2022/09/21 08:33:59;;;;;;;2.40;1.45;;;;;;;21.48;81.80;100823.19;5021418;28;20477;-77
2022/09/21 08:36:25;;;;;;;4.35;0.60;;;;;;;20.54;78.12;100401.59;4992739;28;20033;-78
2022/09/21 08:38:51;;;;;;;1.95;0.80;;;;;;;20.38;75.99;100343.47;5021710;28;20391;-77
2022/09/21 08:41:23;;;;;;;1.13;0.57;;;;;;;20.68;75.57;100489.00;5019428;28;20037;-77
2022/09/21 08:43:58;;;;;;;0.85;0.50;;;;;;;21.34;71.42;100357.41;5023373;28;20031;-77
2022/09/21 08:46:27;;;;;;;0.77;0.43;;;;;;;20.99;68.24;100040.88;5036078;28;20116;-77
2022/09/21 08:49:02;;;;;;;1.77;0.60;;;;;;;21.06;70.71;100405.16;5036989;28;20271;-76
2022/09/21 08:51:36;;;;;;;0.57;0.40;;;;;;;21.61;67.83;100335.06;5004044;28;20033;-77
2022/09/21 08:54:38;;;;;;;0.65;0.40;;;;;;;21.16;67.93;100257.97;5005276;28;20040;-76
2022/09/21 08:57:07;;;;;;;0.90;0.45;;;;;;;21.20;69.17;100461.91;5039132;28;20513;-79
2022/09/21 08:59:34;;;;;;;0.63;0.30;;;;;;;21.04;66.64;100228.19;5025123;28;20052;-79
2022/09/21 09:02:09;;;;;;;0.57;0.43;;;;;;;20.97;67.60;100359.66;5040070;28;20466;-79
2022/09/21 09:04:59;;;;;;;3.63;0.50;;;;;;;21.67;66.54;100499.81;5023774;28;20552;-79
2022/09/21 09:07:50;;;;;;;1.77;0.60;;;;;;;20.69;69.12;100512.31;5034292;28;20048;-77
2022/09/21 09:10:27;;;;;;;1.52;0.80;;;;;;;20.84;67.93;100551.50;5018944;28;20076;-75
2022/09/21 09:13:28;;;;;;;1.20;0.60;;;;;;;20.64;66.47;100329.41;5003222;28;20091;-76
2022/09/21 09:16:18;;;;;;;1.75;0.40;;;;;;;20.20;67.12;100364.19;5033167;28;20516;-76
2022/09/21 09:18:52;;;;;;;1.30;0.45;;;;;;;20.05;69.58;100605.03;5033907;28;20516;-77
2022/09/21 09:21:40;;;;;;;0.55;0.50;;;;;;;19.31;68.06;100244.19;5033897;28;20034;-76
2022/09/21 09:24:10;;;;;;;1.27;0.50;;;;;;;19.77;71.75;100814.97;5020163;28;20440;-76
2022/09/21 09:26:44;;;;;;;1.40;0.60;;;;;;;20.72;67.86;100699.03;5021814;28;20394;-76
2022/09/21 09:29:23;;;;;;;1.77;0.60;;;;;;;21.31;66.11;100713.56;5016012;28;20033;-76
2022/09/21 09:31:53;;;;;;;1.02;0.60;;;;;;;21.75;67.13;100955.06;5030737;28;20091;-76
2022/09/21 09:34:35;;;;;;;0.85;0.60;;;;;;;20.75;64.08;100321.50;5002762;28;20456;-76
2022/09/21 09:37:11;;;;;;;2.40;0.70;;;;;;;21.07;65.13;100585.13;5018768;28;20033;-77
2022/09/21 09:39:38;;;;;;;0.75;0.45;;;;;;;21.82;64.96;100812.63;5018616;28;20122;-76
2022/09/21 09:42:30;;;;;;;3.35;1.00;;;;;;;21.59;65.23;100837.03;5021277;28;20021;-77
2022/09/21 09:45:23;;;;;;;1.02;0.77;;;;;;;22.56;61.27;100643.41;5031579;28;20087;-77
2022/09/21 09:48:09;;;;;;;0.82;0.40;;;;;;;22.76;57.76;100319.97;5036748;28;20490;-77
2022/09/21 09:50:36;;;;;;;;;;;;;;;22.15;58.04;100183.19;5034424;28;20079;-77
2022/09/21 09:53:04;;;;;;;1.75;0.45;;;;;;;21.71;56.69;100018.25;5039300;28;19999;-76
2022/09/21 09:55:37;;;;;;;0.47;0.30;;;;;;;22.02;55.87;100023.19;5037840;28;20126;-76
2022/09/21 09:58:03;;;;;;;0.52;0.30;;;;;;;22.46;54.78;100108.25;5038543;28;20032;-77
2022/09/21 10:00:29;;;;;;;1.23;0.65;;;;;;;22.97;55.69;100374.66;5037241;28;20099;-77
2022/09/21 10:02:58;;;;;;;1.67;0.55;;;;;;;22.43;54.53;100092.44;5021963;28;20547;-77
2022/09/21 10:05:29;;;;;;;1.00;0.40;;;;;;;23.12;52.99;100131.72;5023713;28;20041;-76
2022/09/21 10:07:55;;;;;;;0.32;0.22;;;;;;;22.59;51.75;99817.84;5021543;28;20564;-76
2022/09/21 10:10:20;;;;;;;1.27;0.40;;;;;;;22.63;56.15;100455.53;5006475;28;20030;-76
2022/09/21 10:12:46;;;;;;;1.47;0.50;;;;;;;22.62;55.21;100359.50;5022675;28;20485;-75
2022/09/21 10:15:12;;;;;;;1.02;0.80;;;;;;;21.48;56.84;100228.41;5019355;28;20044;-76
2022/09/21 10:17:37;;;;;;;1.20;0.50;;;;;;;20.57;57.36;100044.00;5025567;28;20317;-76
2022/09/21 10:20:05;;;;;;;2.92;0.90;;;;;;;21.43;58.09;100494.47;5020047;28;20107;-76
2022/09/21 10:22:31;;;;;;;0.95;0.30;;;;;;;22.71;52.95;100243.72;5021032;28;20048;-77
2022/09/21 10:25:04;;;;;;;0.93;0.40;;;;;;;22.15;53.26;100096.19;5039169;28;20021;-76
2022/09/21 10:27:34;;;;;;;1.25;0.40;;;;;;;22.26;51.65;99887.78;5024060;28;20057;-76
2022/09/21 10:30:00;;;;;;;3.17;0.60;;;;;;;22.11;53.43;100131.22;5016100;28;20118;-76
2022/09/21 10:32:27;;;;;;;0.73;0.30;;;;;;;20.79;58.20;100382.34;5038292;28;20026;-76
2022/09/21 10:35:06;;;;;;;0.30;0.30;;;;;;;22.37;55.19;100539.47;5039041;28;20085;-76
2022/09/21 10:37:43;;;;;;;1.52;0.52;;;;;;;22.31;54.39;100410.75;5032063;28;20034;-76
2022/09/21 10:40:20;;;;;;;1.20;0.80;;;;;;;22.28;54.04;100329.66;5036876;28;20375;-76
2022/09/21 10:42:49;;;;;;;1.02;0.50;;;;;;;22.45;53.31;100290.72;5020904;28;20068;-76
2022/09/21 10:45:25;;;;;;;1.38;0.60;;;;;;;23.51;51.47;100451.00;5020055;28;20250;-76
2022/09/21 10:48:13;;;;;;;;;;;;;;;22.69;52.38;100247.75;5022018;28;20065;-75
2022/09/21 10:50:48;;;;;;;1.88;0.52;;;;;;;22.69;50.30;99927.53;5039043;28;20015;-76
2022/09/21 10:53:30;;;;;;;0.95;0.40;;;;;;;22.06;54.01;100298.84;5007745;28;20087;-76
2022/09/21 10:56:15;;;;;;;0.32;0.30;;;;;;;20.81;52.29;99632.38;5034452;28;20032;-75
2022/09/21 10:59:09;;;;;;;1.08;0.65;;;;;;;21.17;54.13;100123.09;5035225;28;20584;-76
2022/09/21 11:01:34;;;;;;;1.73;0.80;;;;;;;21.81;53.02;100253.91;5017088;28;20529;-76
2022/09/21 11:04:27;;;;;;;2.27;0.50;;;;;;;22.51;52.70;100448.28;4994637;28;20139;-77
2022/09/21 11:06:59;;;;;;;0.50;0.40;;;;;;;22.45;51.89;100279.81;5034936;28;20425;-76
2022/09/21 11:09:54;;;;;;;1.08;0.40;;;;;;;22.59;51.04;100221.25;5006330;28;20661;-76
2022/09/21 11:13:00;;;;;;;0.77;0.60;;;;;;;22.62;50.63;100212.59;5001065;28;20044;-75
2022/09/21 11:15:44;;;;;;;;;;;;;;;20.88;52.38;99781.34;5018899;28;20033;-75
2022/09/21 11:18:33;;;;;;;1.80;0.30;;;;;;;22.17;53.83;100525.47;5034951;28;19955;-75
2022/09/21 11:21:04;;;;;;;0.57;0.50;;;;;;;22.45;53.20;100546.38;4998602;28;20375;-75
2022/09/21 11:23:48;;;;;;;2.20;0.50;;;;;;;23.22;51.09;100452.28;5005365;28;20041;-76
2022/09/21 11:26:25;;;;;;;0.70;0.30;;;;;;;22.76;50.89;100253.81;5015665;28;20037;-76
2022/09/21 11:28:54;;;;;;;1.65;0.32;;;;;;;23.91;49.76;100526.13;5033187;28;20095;-75
2022/09/21 11:31:33;;;;;;;2.15;0.40;;;;;;;23.82;50.34;100544.03;5019567;28;20033;-76
2022/09/21 11:34:36;;;;;;;1.02;0.50;;;;;;;23.41;47.58;99946.13;5019806;28;20043;-76
2022/09/21 11:37:25;;;;;;;0.80;0.40;;;;;;;22.73;49.27;100009.44;5019314;28;20032;-76
2022/09/21 11:40:09;;;;;;;1.25;0.30;;;;;;;23.03;49.88;100261.22;4996975;28;20045;-75
2022/09/21 11:43:07;;;;;;;1.67;0.40;;;;;;;22.79;49.86;100168.13;5036957;28;20407;-75
2022/09/21 11:45:48;;;;;;;4.85;0.40;;;;;;;23.41;49.22;100322.84;4975491;28;20580;-76
2022/09/21 11:48:38;;;;;;;0.98;0.32;;;;;;;23.48;49.83;100448.75;4973008;28;20050;-76